Time;durP1;ratioP1;P1;durP2;ratioP2;P2;SDS_P1;SDS_P2;PMS_P1;PMS_P2;Temp;Humidity;BMP_temperature;BMP_pressure;BME280_temperature;BME280_humidity;BME280_pressure;Samples;Min_cycle;Max_cycle;Signal;HPM_P1;HPM_P2
2023/03/20 00:01:46;;;;;;;74.20;32.87;;;;;;;5.90;72.54;95156.66;5063187;28;20162;-77
2023/03/20 00:04:11;;;;;;;66.23;33.43;;;;;;;5.48;72.25;95094.41;5063395;28;20232;-77
2023/03/20 00:06:37;;;;;;;61.83;29.07;;;;;;;5.88;72.61;95156.81;5058869;28;20179;-77
2023/03/20 00:09:03;;;;;;;60.50;29.03;;;;;;;5.73;72.82;95147.28;5061278;28;20217;-77
2023/03/20 00:11:32;;;;;;;67.83;30.87;;;;;;;5.78;72.92;95165.84;5064704;28;20183;-77
2023/03/20 00:14:00;;;;;;;75.33;33.80;;;;;;;5.75;73.64;95153.94;5063218;28;20182;-76
2023/03/20 00:16:31;;;;;;;62.47;29.40;;;;;;;5.62;73.55;95133.63;5050226;28;20580;-77
2023/03/20 00:18:57;;;;;;;49.57;24.60;;;;;;;5.62;73.13;95136.22;5062992;28;20254;-77
2023/03/20 00:21:23;;;;;;;56.17;26.30;;;;;;;5.68;73.18;95150.41;5064975;28;20199;-77
2023/03/20 00:23:48;;;;;;;64.20;30.40;;;;;;;5.73;73.50;95155.09;5068017;28;20220;-77
2023/03/20 00:26:17;;;;;;;60.80;29.30;;;;;;;5.69;73.65;95150.25;5068292;28;20181;-77
2023/03/20 00:28:47;;;;;;;64.73;29.47;;;;;;;5.66;73.64;95153.19;5042809;28;20551;-77
2023/03/20 00:31:34;;;;;;;67.43;32.07;;;;;;;5.63;74.13;95140.47;5064900;28;20248;-77
2023/03/20 00:34:03;;;;;;;71.70;30.50;;;;;;;5.61;73.81;95145.09;5042684;28;20182;-77
2023/03/20 00:36:28;;;;;;;59.83;31.47;;;;;;;5.57;74.25;95148.19;5069392;28;20180;-77
2023/03/20 00:38:56;;;;;;;56.27;29.37;;;;;;;5.45;73.75;95118.25;5056755;28;20605;-77
2023/03/20 00:41:28;;;;;;;65.07;28.27;;;;;;;5.50;73.74;95142.84;5051476;28;20477;-77
2023/03/20 00:43:58;;;;;;;52.23;24.97;;;;;;;5.50;73.94;95142.84;5063939;28;20175;-79
2023/03/20 00:46:24;;;;;;;51.33;25.33;;;;;;;5.37;73.76;95123.50;5068049;28;20633;-78
2023/03/20 00:48:50;;;;;;;53.03;23.30;;;;;;;5.45;74.20;95139.94;5056663;28;20218;-77
2023/03/20 00:51:16;;;;;;;38.00;19.60;;;;;;;5.44;74.01;95132.28;5067026;28;20220;-77
2023/03/20 00:53:42;;;;;;;45.40;23.03;;;;;;;5.37;74.14;95139.97;5064537;28;20252;-77
2023/03/20 00:56:33;;;;;;;38.53;19.77;;;;;;;5.30;74.10;95115.56;5069802;28;20189;-77
2023/03/20 00:59:00;;;;;;;47.47;21.40;;;;;;;5.30;74.06;95126.00;5058624;28;20182;-77
2023/03/20 01:01:27;;;;;;;47.53;21.13;;;;;;;5.36;74.24;95138.38;5033537;28;20629;-77
2023/03/20 01:03:52;;;;;;;49.33;20.10;;;;;;;5.38;74.27;95125.13;5053395;28;20224;-77
2023/03/20 01:06:18;;;;;;;35.10;18.83;;;;;;;5.32;74.27;95124.03;5064857;28;20186;-77
2023/03/20 01:08:44;;;;;;;47.80;19.93;;;;;;;5.24;73.87;95104.00;5068865;28;20257;-77
2023/03/20 01:11:12;;;;;;;49.23;20.27;;;;;;;5.27;74.10;95118.53;5069978;28;20298;-76
2023/03/20 01:13:39;;;;;;;43.43;19.50;;;;;;;5.15;74.55;95105.03;5062876;28;20210;-77
2023/03/20 01:16:05;;;;;;;38.77;18.47;;;;;;;5.14;74.76;95103.41;5068078;28;20676;-77
2023/03/20 01:18:30;;;;;;;37.07;18.93;;;;;;;5.24;75.26;95116.25;5066718;28;20182;-77
2023/03/20 01:20:56;;;;;;;41.57;18.87;;;;;;;5.23;75.04;95115.44;5048680;28;20174;-77
2023/03/20 01:23:25;;;;;;;34.73;16.67;;;;;;;5.19;75.21;95108.13;5064833;28;20182;-77
2023/03/20 01:25:51;;;;;;;33.33;18.05;;;;;;;5.15;75.61;95106.84;5061363;28;20430;-77
2023/03/20 01:28:22;;;;;;;30.13;16.23;;;;;;;5.15;75.40;95109.44;5063556;28;20630;-77
2023/03/20 01:30:48;;;;;;;29.93;16.57;;;;;;;4.88;75.33;95068.97;5057622;28;20178;-77
2023/03/20 01:33:22;;;;;;;32.37;16.07;;;;;;;5.16;75.28;95111.06;5071291;28;20218;-77
2023/03/20 01:35:49;;;;;;;34.70;18.80;;;;;;;5.14;75.92;95119.06;5059836;28;20435;-76
2023/03/20 01:38:24;;;;;;;30.20;15.67;;;;;;;5.16;75.68;95119.72;5066343;28;20178;-77
2023/03/20 01:40:53;;;;;;;39.33;20.67;;;;;;;5.18;75.20;95112.53;5059252;28;20179;-77
2023/03/20 01:43:21;;;;;;;32.83;15.83;;;;;;;5.16;74.96;95126.72;5073219;28;20174;-77
2023/03/20 01:46:21;;;;;;;35.30;18.33;;;;;;;5.08;75.86;95122.38;5071332;28;20178;-77
2023/03/20 01:48:49;;;;;;;34.43;16.77;;;;;;;5.08;75.64;95124.16;5059160;28;20202;-77
2023/03/20 01:51:22;;;;;;;34.30;17.47;;;;;;;5.07;75.78;95120.75;5067557;28;20233;-77
2023/03/20 01:54:18;;;;;;;44.60;22.55;;;;;;;5.05;76.13;95122.69;5060624;28;20449;-77
2023/03/20 01:56:47;;;;;;;42.87;20.93;;;;;;;4.88;76.27;95111.53;5067872;28;20178;-77
2023/03/20 01:59:24;;;;;;;47.27;22.03;;;;;;;4.82;76.44;95104.38;5056864;28;20204;-77
2023/03/20 02:01:50;;;;;;;41.90;18.30;;;;;;;4.88;76.39;95111.53;5067679;28;20174;-77
2023/03/20 02:04:18;;;;;;;47.17;17.17;;;;;;;4.86;76.16;95110.88;5063754;28;20178;-77
2023/03/20 02:06:44;;;;;;;36.63;16.80;;;;;;;4.89;75.90;95113.16;5054909;28;20182;-77
2023/03/20 02:09:10;;;;;;;27.67;16.00;;;;;;;4.90;76.30;95114.78;5068226;28;20606;-77
2023/03/20 02:11:38;;;;;;;35.87;16.43;;;;;;;4.70;76.24;95087.47;5059299;28;20181;-77
2023/03/20 02:14:03;;;;;;;35.80;16.17;;;;;;;4.82;76.23;95112.22;5072470;28;20534;-77
2023/03/20 02:16:29;;;;;;;28.07;15.23;;;;;;;4.81;76.43;95118.41;5059715;28;20225;-77
2023/03/20 02:18:56;;;;;;;28.87;15.20;;;;;;;4.75;76.55;95119.09;5065327;28;20236;-77
2023/03/20 02:21:59;;;;;;;31.27;15.93;;;;;;;4.66;76.68;95127.91;5059971;28;20183;-76
2023/03/20 02:24:53;;;;;;;40.40;18.70;;;;;;;4.66;76.63;95119.28;5056072;28;20179;-77
2023/03/20 02:27:41;;;;;;;35.97;19.57;;;;;;;4.63;76.79;95127.44;5066164;28;20175;-77
2023/03/20 02:30:12;;;;;;;39.47;18.57;;;;;;;4.62;76.87;95124.00;5063731;28;20534;-76
2023/03/20 02:32:59;;;;;;;38.83;19.03;;;;;;;4.65;77.07;95128.91;5063410;28;20214;-77
2023/03/20 02:35:45;;;;;;;45.77;19.77;;;;;;;4.61;76.78;95131.97;5072045;28;20174;-77
2023/03/20 02:38:46;;;;;;;50.13;22.47;;;;;;;4.56;77.44;95116.84;5066993;28;20178;-77
2023/03/20 02:41:22;;;;;;;57.97;24.60;;;;;;;4.53;77.98;95123.22;5055767;28;20178;-77
2023/03/20 02:44:05;;;;;;;51.08;24.85;;;;;;;4.58;78.08;95120.13;5056898;28;20807;-76
2023/03/20 02:46:59;;;;;;;40.27;20.37;;;;;;;4.62;77.69;95120.59;5067039;28;20249;-77
2023/03/20 02:49:44;;;;;;;44.40;18.33;;;;;;;4.57;77.16;95118.50;5053842;28;20213;-76
2023/03/20 02:52:15;;;;;;;37.33;17.63;;;;;;;4.54;77.13;95116.22;5060516;28;20230;-76
2023/03/20 02:55:00;;;;;;;34.83;17.60;;;;;;;4.48;77.42;95112.50;5066637;28;20179;-76
2023/03/20 02:57:48;;;;;;;39.53;15.90;;;;;;;4.40;77.29;95099.47;5063299;28;20658;-76
2023/03/20 03:00:36;;;;;;;33.40;16.27;;;;;;;4.43;77.54;95104.34;5049499;28;20668;-76
2023/03/20 03:03:38;;;;;;;28.13;15.37;;;;;;;4.45;77.06;95112.81;5053403;28;20175;-77
2023/03/20 03:06:16;;;;;;;33.30;16.53;;;;;;;4.46;77.38;95114.44;5011403;28;20191;-77
2023/03/20 03:08:47;;;;;;;39.93;18.67;;;;;;;4.47;77.44;95112.66;5065468;28;20572;-77
2023/03/20 03:11:12;;;;;;;42.73;19.77;;;;;;;4.45;77.28;95099.78;5063832;28;20228;-77
2023/03/20 03:13:43;;;;;;;46.33;21.00;;;;;;;4.33;77.34;95079.44;5068922;28;20203;-77
2023/03/20 03:16:14;;;;;;;47.57;20.63;;;;;;;4.49;77.58;95097.66;5054938;28;20197;-77
2023/03/20 03:18:41;;;;;;;42.13;20.43;;;;;;;4.49;77.23;95106.28;5071315;28;20618;-77
2023/03/20 03:21:10;;;;;;;44.63;20.57;;;;;;;4.50;77.29;95113.09;5057151;28;20190;-77
2023/03/20 03:23:43;;;;;;;39.77;18.67;;;;;;;4.46;77.57;95108.41;5064556;28;20240;-77
2023/03/20 03:26:13;;;;;;;41.10;17.90;;;;;;;4.44;77.80;95105.16;5071956;28;20436;-77
2023/03/20 03:28:46;;;;;;;34.00;15.63;;;;;;;4.46;77.55;95108.41;5063622;28;20220;-77
2023/03/20 03:31:14;;;;;;;34.80;17.97;;;;;;;4.42;76.87;95101.91;5060969;28;20175;-77
2023/03/20 03:33:44;;;;;;;31.43;16.23;;;;;;;4.45;76.69;95115.41;5064636;28;20655;-77
2023/03/20 03:36:24;;;;;;;40.93;17.93;;;;;;;4.39;77.01;95112.66;5062044;28;20178;-77
2023/03/20 03:39:02;;;;;;;26.07;13.83;;;;;;;4.36;77.31;95115.59;5062012;28;20270;-77
2023/03/20 03:42:02;;;;;;;31.83;16.10;;;;;;;4.35;77.05;95114.78;5070696;28;20257;-77
2023/03/20 03:44:41;;;;;;;36.13;15.47;;;;;;;4.34;77.47;95107.94;5028723;28;20195;-77
2023/03/20 03:47:14;;;;;;;36.42;17.45;;;;;;;4.21;77.37;95083.41;5061289;28;20464;-77
2023/03/20 03:49:44;;;;;;;38.87;18.77;;;;;;;4.29;77.71;95104.22;5061693;28;20271;-77
2023/03/20 03:52:15;;;;;;;34.80;16.87;;;;;;;4.16;77.44;95084.69;5061340;28;21010;-77
2023/03/20 03:55:00;;;;;;;39.77;16.97;;;;;;;4.26;77.32;95101.94;5064335;28;20166;-77
2023/03/20 03:57:42;;;;;;;33.00;15.43;;;;;;;4.24;77.42;95099.50;5056721;28;20668;-77
2023/03/20 04:00:11;;;;;;;40.97;16.90;;;;;;;4.20;77.59;95095.59;5052746;28;20237;-77
2023/03/20 04:02:37;;;;;;;36.13;17.03;;;;;;;4.17;77.53;95096.75;5058233;28;20174;-76
2023/03/20 04:05:06;;;;;;;32.57;17.37;;;;;;;4.05;77.88;95073.81;5063355;28;20263;-76
2023/03/20 04:07:31;;;;;;;39.60;19.33;;;;;;;4.02;77.92;95074.97;5070599;28;20181;-77
2023/03/20 04:09:57;;;;;;;36.77;18.23;;;;;;;4.13;77.87;95099.84;5061887;28;20163;-77
2023/03/20 04:12:36;;;;;;;37.57;18.17;;;;;;;4.10;77.85;95092.34;5067729;28;20182;-76
2023/03/20 04:15:02;;;;;;;38.07;20.07;;;;;;;4.08;78.36;95087.31;5064198;28;20167;-76
2023/03/20 04:17:28;;;;;;;38.43;20.67;;;;;;;4.07;78.11;95085.69;5039780;28;20202;-77
2023/03/20 04:19:53;;;;;;;42.03;22.33;;;;;;;4.04;78.63;95080.81;5051638;28;20413;-76
2023/03/20 04:22:19;;;;;;;42.50;21.33;;;;;;;4.04;78.97;95069.59;5068682;28;20183;-77
2023/03/20 04:24:45;;;;;;;41.27;22.23;;;;;;;4.09;78.96;95075.09;5091286;28;20215;-78
2023/03/20 04:27:11;;;;;;;42.67;22.77;;;;;;;4.08;78.94;95078.69;5068388;28;20229;-78
2023/03/20 04:29:36;;;;;;;41.80;20.03;;;;;;;3.94;79.04;95063.75;5061349;28;20250;-78
2023/03/20 04:32:02;;;;;;;43.47;23.40;;;;;;;4.10;78.86;95087.16;5053748;28;20549;-79
2023/03/20 04:34:28;;;;;;;42.33;22.73;;;;;;;4.09;79.02;95088.94;5063365;28;20170;-77
2023/03/20 04:36:53;;;;;;;47.80;24.50;;;;;;;4.02;79.23;95076.75;5068716;28;20181;-77
2023/03/20 04:39:19;;;;;;;43.27;22.77;;;;;;;4.09;79.09;95080.31;5064292;28;20184;-78
2023/03/20 04:41:45;;;;;;;40.80;22.17;;;;;;;4.20;78.90;95100.00;5068036;28;20182;-78
2023/03/20 04:44:10;;;;;;;48.07;24.57;;;;;;;4.24;78.68;95107.31;5060734;28;20533;-78
2023/03/20 04:46:35;;;;;;;55.37;28.00;;;;;;;4.30;78.91;95111.88;5064483;28;20167;-77
2023/03/20 04:49:01;;;;;;;46.67;25.37;;;;;;;4.38;79.00;95103.22;5057667;28;20185;-76
2023/03/20 04:51:27;;;;;;;42.93;25.10;;;;;;;4.68;78.15;95119.91;5065028;28;20166;-77
2023/03/20 04:53:52;;;;;;;55.50;28.43;;;;;;;5.04;77.06;95112.44;5071396;28;20217;-77
2023/03/20 04:56:18;;;;;;;58.93;28.77;;;;;;;5.56;74.63;95131.72;5066842;28;20171;-77
2023/03/20 04:58:43;;;;;;;68.20;33.87;;;;;;;5.90;73.27;95130.53;5067593;28;20249;-77
2023/03/20 05:01:09;;;;;;;70.90;34.03;;;;;;;6.18;72.39;95129.00;5065949;28;20649;-77
2023/03/20 05:03:34;;;;;;;69.77;38.00;;;;;;;6.38;70.51;95132.72;5060967;28;20170;-77
2023/03/20 05:05:59;;;;;;;66.13;32.67;;;;;;;6.50;70.22;95125.25;5066770;28;21058;-78
2023/03/20 05:08:25;;;;;;;53.73;28.37;;;;;;;6.60;69.08;95127.59;5017007;28;20186;-78
2023/03/20 05:10:51;;;;;;;60.77;25.60;;;;;;;6.61;68.46;95124.81;5063883;28;20566;-78
2023/03/20 05:13:17;;;;;;;63.50;27.90;;;;;;;6.77;67.87;95137.72;5041274;28;20198;-78
2023/03/20 05:15:42;;;;;;;55.70;28.70;;;;;;;6.98;67.95;95144.84;5053721;28;20167;-77
2023/03/20 05:18:08;;;;;;;60.90;27.70;;;;;;;7.17;66.66;95131.22;5065216;28;20213;-77
2023/03/20 05:20:35;;;;;;;57.43;26.50;;;;;;;7.55;65.82;95147.56;5071082;28;20227;-78
2023/03/20 05:23:01;;;;;;;53.80;25.73;;;;;;;7.75;64.74;95123.38;5063543;28;20174;-78
2023/03/20 05:25:26;;;;;;;58.20;27.97;;;;;;;8.16;64.35;95149.75;5061009;28;20261;-78
2023/03/20 05:27:52;;;;;;;58.43;30.40;;;;;;;8.37;62.89;95156.84;5059136;28;20631;-78
2023/03/20 05:30:18;;;;;;;85.27;34.90;;;;;;;8.22;62.54;95117.53;5062295;28;20162;-78
2023/03/20 05:32:44;;;;;;;78.60;34.57;;;;;;;8.66;61.64;95141.72;5062329;28;20229;-76
2023/03/20 05:35:10;;;;;;;78.60;36.20;;;;;;;8.90;61.10;95150.16;5061506;28;20175;-77
2023/03/20 05:37:37;;;;;;;77.37;38.10;;;;;;;9.23;60.29;95137.19;5062802;28;20604;-76
2023/03/20 05:40:03;;;;;;;76.20;35.33;;;;;;;9.79;58.39;95148.28;5069435;28;20178;-77
2023/03/20 05:42:29;;;;;;;80.33;31.73;;;;;;;10.59;57.02;95150.03;5070442;28;20174;-78
2023/03/20 05:44:54;;;;;;;82.67;34.63;;;;;;;11.27;53.81;95153.97;5057539;28;20175;-78
2023/03/20 05:47:20;;;;;;;80.53;32.30;;;;;;;11.84;51.96;95159.47;5066493;28;20305;-77
2023/03/20 05:49:45;;;;;;;64.40;30.57;;;;;;;12.41;50.41;95158.50;5071542;28;20158;-78
2023/03/20 05:52:10;;;;;;;63.80;31.53;;;;;;;12.85;48.13;95162.81;5053875;28;20192;-78
2023/03/20 05:54:36;;;;;;;57.20;28.00;;;;;;;13.25;46.51;95157.97;5065759;28;20174;-79
2023/03/20 05:57:01;;;;;;;55.03;29.87;;;;;;;13.68;45.52;95165.00;5058039;28;20582;-79
2023/03/20 05:59:27;;;;;;;77.20;27.57;;;;;;;13.93;44.72;95158.56;5064296;28;20186;-79
2023/03/20 06:01:52;;;;;;;85.03;30.67;;;;;;;13.97;44.29;95140.41;5071157;28;20236;-78
2023/03/20 06:04:17;;;;;;;66.73;31.60;;;;;;;14.13;44.33;95149.56;5063801;28;20179;-79
2023/03/20 06:06:43;;;;;;;67.10;30.43;;;;;;;14.34;44.23;95149.06;5063785;28;20175;-79
2023/03/20 06:09:08;;;;;;;69.73;29.90;;;;;;;14.48;43.88;95147.03;5065636;28;20237;-79
2023/03/20 06:11:34;;;;;;;64.78;28.33;;;;;;;14.53;43.99;95150.63;5072309;28;20656;-78
2023/03/20 06:13:59;;;;;;;61.37;28.87;;;;;;;13.97;45.23;95156.31;5065702;28;20190;-78
2023/03/20 06:16:25;;;;;;;44.80;19.67;;;;;;;13.01;46.43;95143.75;5057120;28;20569;-77
2023/03/20 06:18:51;;;;;;;32.97;17.77;;;;;;;12.64;48.95;95150.78;5046651;28;20209;-77
2023/03/20 06:21:16;;;;;;;31.20;13.90;;;;;;;12.29;49.71;95150.44;5067721;28;20202;-77
2023/03/20 06:23:42;;;;;;;26.47;13.67;;;;;;;12.01;49.39;95150.84;5070387;28;20201;-77
2023/03/20 06:26:07;;;;;;;23.83;13.40;;;;;;;11.79;49.31;95146.91;5073504;28;20170;-77
2023/03/20 06:28:33;;;;;;;29.97;13.77;;;;;;;11.57;50.58;95149.00;5044957;28;20187;-77
2023/03/20 06:30:58;;;;;;;30.17;14.40;;;;;;;11.43;51.36;95157.16;5063867;28;20167;-76
2023/03/20 06:33:24;;;;;;;26.27;13.63;;;;;;;11.32;51.59;95146.28;5062725;28;20221;-77
2023/03/20 06:35:49;;;;;;;23.10;11.97;;;;;;;11.33;52.90;95160.22;5063513;28;20220;-77
2023/03/20 06:38:15;;;;;;;24.57;13.80;;;;;;;11.28;52.65;95152.16;5069182;28;20182;-78
2023/03/20 06:40:41;;;;;;;28.03;12.47;;;;;;;11.29;52.82;95161.69;5062377;28;20606;-78
2023/03/20 06:43:07;;;;;;;29.40;14.57;;;;;;;11.30;54.41;95150.94;5058189;28;20638;-78
2023/03/20 06:45:33;;;;;;;29.63;13.70;;;;;;;11.56;54.57;95150.03;5063306;28;20187;-77
2023/03/20 06:47:58;;;;;;;26.27;13.50;;;;;;;11.84;51.35;95159.47;5063068;28;21044;-78
2023/03/20 06:50:24;;;;;;;23.63;11.97;;;;;;;12.03;51.64;95153.25;5067903;28;20216;-78
2023/03/20 06:52:50;;;;;;;37.50;13.80;;;;;;;12.12;51.93;95140.63;5057719;28;20245;-78
2023/03/20 06:55:15;;;;;;;28.33;14.97;;;;;;;12.21;51.38;95145.44;5053918;28;20584;-78
2023/03/20 06:57:41;;;;;;;25.03;13.23;;;;;;;12.15;49.22;95148.94;5061500;28;20208;-78
2023/03/20 07:00:09;;;;;;;25.97;13.27;;;;;;;12.25;50.45;95154.56;5065070;28;20261;-78
2023/03/20 07:02:34;;;;;;;27.57;13.13;;;;;;;12.42;49.74;95141.63;5066285;28;20225;-78
2023/03/20 07:05:00;;;;;;;31.57;13.73;;;;;;;12.65;49.27;95144.47;5062534;28;20167;-78
2023/03/20 07:07:26;;;;;;;27.73;12.97;;;;;;;12.59;48.61;95149.84;5057349;28;20174;-78
2023/03/20 07:09:51;;;;;;;26.70;12.93;;;;;;;12.69;51.10;95136.94;5073970;28;20205;-78
2023/03/20 07:12:18;;;;;;;27.47;13.47;;;;;;;12.84;48.65;95142.69;5064748;28;20198;-78
2023/03/20 07:14:44;;;;;;;24.20;12.03;;;;;;;12.78;47.56;95115.31;5054357;28;20178;-78
2023/03/20 07:17:11;;;;;;;23.87;13.10;;;;;;;12.84;48.27;95138.22;5062423;28;20167;-78
2023/03/20 07:19:37;;;;;;;27.57;13.23;;;;;;;13.03;50.08;95131.13;5059464;28;20645;-78
2023/03/20 07:22:06;;;;;;;24.00;11.97;;;;;;;13.36;47.13;95143.22;5064208;28;20224;-78
2023/03/20 07:24:32;;;;;;;23.33;10.73;;;;;;;13.27;46.35;95126.03;5062294;28;20178;-78
2023/03/20 07:26:57;;;;;;;19.43;10.13;;;;;;;13.35;46.22;95142.41;5067035;28;20174;-78
2023/03/20 07:29:23;;;;;;;22.73;10.57;;;;;;;13.44;48.00;95134.97;5057292;28;20175;-78
2023/03/20 07:31:48;;;;;;;27.43;12.20;;;;;;;13.68;47.31;95139.38;5062575;28;20178;-78
2023/03/20 07:34:14;;;;;;;26.10;12.57;;;;;;;14.03;47.43;95144.00;5064504;28;20178;-78
2023/03/20 07:36:43;;;;;;;22.17;11.53;;;;;;;14.31;45.54;95138.91;5064156;28;20535;-78
2023/03/20 07:39:09;;;;;;;28.33;11.50;;;;;;;14.52;46.40;95138.44;5073167;28;20186;-78
2023/03/20 07:41:35;;;;;;;20.83;10.37;;;;;;;14.60;45.22;95139.94;5071424;28;20738;-77
2023/03/20 07:44:00;;;;;;;28.77;10.30;;;;;;;14.53;43.30;95136.59;5056015;28;20175;-77
2023/03/20 07:46:26;;;;;;;19.30;10.37;;;;;;;14.66;43.49;95142.47;5039819;28;20634;-77
2023/03/20 07:48:51;;;;;;;23.77;10.53;;;;;;;14.64;43.82;95141.88;5060478;28;20181;-77
2023/03/20 07:51:17;;;;;;;23.23;10.87;;;;;;;14.65;44.95;95142.69;5053408;28;20179;-77
2023/03/20 07:53:42;;;;;;;19.80;10.23;;;;;;;14.92;43.01;95135.09;5043827;28;20206;-77
2023/03/20 07:56:10;;;;;;;18.67;9.82;;;;;;;15.10;42.36;95138.44;5052307;28;20575;-78
2023/03/20 07:58:35;;;;;;;15.85;10.52;;;;;;;15.20;43.13;95124.63;5051749;28;20178;-78
2023/03/20 08:01:02;;;;;;;19.50;10.37;;;;;;;15.47;44.04;95120.41;5077138;28;20240;-79
2023/03/20 08:03:27;;;;;;;18.05;10.65;;;;;;;15.74;42.00;95125.22;5064046;28;20220;-78
2023/03/20 08:05:53;;;;;;;17.77;9.02;;;;;;;16.08;41.00;95152.69;5066604;28;20183;-79
2023/03/20 08:08:19;;;;;;;16.38;9.93;;;;;;;16.36;42.02;95146.53;5070197;28;20189;-79
2023/03/20 08:10:44;;;;;;;20.73;9.82;;;;;;;16.59;40.29;95149.06;5063595;28;20213;-79
2023/03/20 08:13:10;;;;;;;19.33;10.05;;;;;;;16.52;39.11;95113.84;5067854;28;20209;-80
2023/03/20 08:15:35;;;;;;;18.85;10.35;;;;;;;16.59;39.39;95135.78;5061821;28;20171;-80
2023/03/20 08:18:01;;;;;;;24.50;10.55;;;;;;;16.37;39.43;95098.47;5063805;28;20254;-79
2023/03/20 08:20:26;;;;;;;22.52;10.45;;;;;;;16.75;38.70;95142.19;5061157;28;20645;-78
2023/03/20 08:22:52;;;;;;;15.70;10.13;;;;;;;16.70;38.40;95136.75;5065416;28;20202;-78
2023/03/20 08:25:17;;;;;;;18.58;8.73;;;;;;;16.56;38.75;95133.59;5056619;28;20190;-78
2023/03/20 08:27:42;;;;;;;22.25;10.45;;;;;;;16.36;39.09;95144.69;5070039;28;20558;-79
2023/03/20 08:30:09;;;;;;;24.90;11.52;;;;;;;16.00;39.81;95137.91;5061128;28;20213;-77
2023/03/20 08:32:35;;;;;;;21.55;10.45;;;;;;;16.36;39.61;95143.88;5052251;28;20755;-78
2023/03/20 08:35:00;;;;;;;14.35;9.63;;;;;;;16.23;40.27;95121.88;5067927;28;20184;-78
2023/03/20 08:37:27;;;;;;;18.40;10.20;;;;;;;16.85;39.77;95139.69;5065543;28;20253;-79
2023/03/20 08:39:52;;;;;;;17.02;9.73;;;;;;;17.27;38.18;95145.34;5060495;28;20270;-77
2023/03/20 08:42:18;;;;;;;23.38;10.68;;;;;;;17.58;37.41;95118.06;5060686;28;21033;-80
2023/03/20 08:44:44;;;;;;;16.90;9.73;;;;;;;18.03;37.83;95139.13;5068287;28;20182;-78
2023/03/20 08:47:10;;;;;;;20.13;9.85;;;;;;;17.85;37.60;95136.81;5061972;28;20229;-78
2023/03/20 08:49:36;;;;;;;17.48;8.93;;;;;;;17.69;37.01;95132.34;5060700;28;20236;-78
2023/03/20 08:52:03;;;;;;;17.33;9.25;;;;;;;17.85;37.57;95130.66;5060349;28;20221;-78
2023/03/20 08:54:29;;;;;;;23.92;9.98;;;;;;;18.06;37.24;95132.53;5068174;28;20186;-77
2023/03/20 08:56:55;;;;;;;25.25;9.52;;;;;;;18.16;37.86;95129.16;5064114;28;20251;-80
2023/03/20 08:59:20;;;;;;;19.60;9.40;;;;;;;18.05;36.24;95129.03;5062969;28;20212;-79
2023/03/20 09:01:47;;;;;;;21.15;9.95;;;;;;;18.21;36.40;95129.19;5062786;28;20174;-78
2023/03/20 09:04:13;;;;;;;17.92;10.20;;;;;;;18.04;36.50;95119.44;5037078;28;20186;-80
2023/03/20 09:06:39;;;;;;;22.88;8.77;;;;;;;17.92;38.93;95124.09;5060791;28;20686;-79
2023/03/20 09:09:05;;;;;;;18.48;9.77;;;;;;;17.93;37.97;95106.25;5057732;28;20212;-80
2023/03/20 09:11:31;;;;;;;16.70;8.50;;;;;;;17.92;36.10;95109.97;5065328;28;20203;-79
2023/03/20 09:13:58;;;;;;;15.80;9.02;;;;;;;17.90;37.61;95104.09;5066985;28;20288;-79
2023/03/20 09:16:24;;;;;;;18.02;9.43;;;;;;;17.94;40.55;95091.88;5054165;28;20262;-79
2023/03/20 09:18:49;;;;;;;19.73;8.52;;;;;;;18.08;37.01;95117.88;5063010;28;20261;-79
2023/03/20 09:21:15;;;;;;;16.85;9.35;;;;;;;18.18;38.49;95109.19;5044828;28;20192;-79
2023/03/20 09:23:40;;;;;;;23.77;10.40;;;;;;;18.32;38.61;95106.94;5044725;28;20171;-79
2023/03/20 09:26:06;;;;;;;17.52;10.15;;;;;;;18.06;35.96;95100.53;5060597;28;20196;-79
2023/03/20 09:28:31;;;;;;;14.75;9.13;;;;;;;17.92;38.18;95105.44;5059755;28;20239;-79
2023/03/20 09:30:58;;;;;;;17.90;9.23;;;;;;;18.17;36.55;95094.25;5066844;28;21097;-78
2023/03/20 09:33:24;;;;;;;20.13;9.20;;;;;;;18.38;36.37;95095.25;5066528;28;20618;-78
2023/03/20 09:35:50;;;;;;;17.83;9.68;;;;;;;18.13;35.47;95089.69;5064052;28;20186;-78
2023/03/20 09:38:16;;;;;;;20.25;10.23;;;;;;;18.08;36.26;95091.22;5067789;28;20186;-78
2023/03/20 09:40:51;;;;;;;22.10;10.68;;;;;;;18.13;37.52;95065.69;5064247;28;20245;-78
2023/03/20 09:43:32;;;;;;;17.63;10.00;;;;;;;17.93;35.85;95082.28;5050743;28;20173;-79
2023/03/20 09:46:09;;;;;;;20.17;10.02;;;;;;;17.82;37.42;95077.88;5043962;28;20280;-79
2023/03/20 09:48:44;;;;;;;21.00;10.10;;;;;;;17.69;37.40;95063.13;5067893;28;20664;-79
2023/03/20 09:51:34;;;;;;;20.23;10.00;;;;;;;17.88;37.00;95063.59;5068248;28;20193;-79
2023/03/20 09:54:08;;;;;;;15.98;9.73;;;;;;;18.10;38.07;95059.81;5066082;28;20194;-79
2023/03/20 09:56:35;;;;;;;19.85;10.18;;;;;;;17.97;36.71;95051.44;5057282;28;20224;-79
2023/03/20 09:59:03;;;;;;;17.10;9.70;;;;;;;17.94;38.08;95046.59;5066635;28;20214;-79
2023/03/20 10:01:34;;;;;;;16.67;8.85;;;;;;;17.91;38.18;95028.44;5066049;28;20549;-79
2023/03/20 10:04:07;;;;;;;17.92;9.25;;;;;;;17.79;36.53;95033.13;5066607;28;20175;-79
2023/03/20 10:06:34;;;;;;;21.27;10.00;;;;;;;17.56;37.70;94997.69;5064133;28;20232;-79
2023/03/20 10:08:59;;;;;;;18.20;9.68;;;;;;;17.75;38.47;95016.84;5063880;28;20758;-79
2023/03/20 10:11:43;;;;;;;18.33;9.32;;;;;;;17.79;37.93;95019.81;5045807;28;20171;-79
2023/03/20 10:14:36;;;;;;;17.00;10.02;;;;;;;17.71;37.06;95019.22;5064970;28;20274;-79
2023/03/20 10:17:17;;;;;;;21.17;9.27;;;;;;;17.55;41.78;94990.00;5067916;28;20180;-82
2023/03/20 10:19:58;;;;;;;20.15;9.90;;;;;;;17.52;38.59;94985.97;5063711;28;20608;-80
2023/03/20 10:22:59;;;;;;;14.55;8.93;;;;;;;17.65;38.18;94998.91;5068720;28;20178;-78
2023/03/20 10:25:33;;;;;;;22.25;9.73;;;;;;;17.77;38.08;95000.63;4983077;28;20269;-78
2023/03/20 10:28:02;;;;;;;13.63;9.35;;;;;;;17.89;38.94;95004.75;5065447;28;20167;-77
2023/03/20 10:30:49;;;;;;;18.88;10.18;;;;;;;17.96;38.20;94994.69;5062631;28;20194;-77
2023/03/20 10:33:30;;;;;;;20.67;9.73;;;;;;;18.07;37.50;94996.34;5062667;28;20199;-77
2023/03/20 10:36:06;;;;;;;22.08;9.95;;;;;;;17.91;38.11;94978.63;5064936;28;20170;-77
2023/03/20 10:38:48;;;;;;;18.17;9.63;;;;;;;17.86;38.11;94975.94;5066830;28;20543;-76
2023/03/20 10:41:17;;;;;;;20.10;8.98;;;;;;;17.95;37.57;94985.06;5066687;28;20178;-77
2023/03/20 10:43:46;;;;;;;18.90;9.98;;;;;;;17.97;38.14;94980.31;5070438;28;20543;-77
2023/03/20 10:46:22;;;;;;;18.60;10.25;;;;;;;17.93;39.42;94962.41;5040311;28;20171;-76
2023/03/20 10:49:14;;;;;;;18.95;9.68;;;;;;;18.15;38.46;94971.13;5059439;28;20218;-78
2023/03/20 10:51:50;;;;;;;22.50;10.05;;;;;;;18.10;35.65;94960.41;5069902;28;20728;-79
2023/03/20 10:54:40;;;;;;;18.95;9.18;;;;;;;18.11;35.88;94964.69;5054053;28;20174;-78
2023/03/20 10:57:15;;;;;;;14.73;9.32;;;;;;;18.09;38.41;94958.81;5046606;28;20214;-78
2023/03/20 10:59:47;;;;;;;18.83;10.13;;;;;;;18.20;35.79;94957.84;5064920;28;20167;-78
2023/03/20 11:02:15;;;;;;;19.38;10.50;;;;;;;18.13;36.50;94957.25;5055921;28;20237;-79
2023/03/20 11:04:41;;;;;;;15.82;9.70;;;;;;;18.12;38.49;94966.28;5073874;28;20175;-79
2023/03/20 11:07:27;;;;;;;19.48;9.98;;;;;;;18.14;38.61;94958.84;5074227;28;20159;-79
2023/03/20 11:10:04;;;;;;;20.63;10.40;;;;;;;18.14;39.91;94956.19;5073674;28;20146;-79
2023/03/20 11:12:35;;;;;;;22.38;10.45;;;;;;;18.20;37.52;94951.69;5064400;28;20210;-78
2023/03/20 11:15:14;;;;;;;20.35;10.45;;;;;;;18.24;35.99;94940.28;5065041;28;20178;-78
2023/03/20 11:17:40;;;;;;;16.08;9.45;;;;;;;18.27;36.74;94934.44;5073760;28;20182;-78
2023/03/20 11:20:06;;;;;;;23.02;10.05;;;;;;;18.28;36.08;94933.38;5064269;28;20642;-79
2023/03/20 11:22:31;;;;;;;18.50;9.98;;;;;;;18.24;36.57;94926.97;5070693;28;20186;-77
2023/03/20 11:25:03;;;;;;;23.52;10.05;;;;;;;18.14;36.36;94910.91;5059236;28;20638;-76
2023/03/20 11:27:31;;;;;;;16.40;9.48;;;;;;;18.26;38.61;94924.00;5053595;28;20269;-75
2023/03/20 11:30:00;;;;;;;17.48;9.27;;;;;;;18.29;35.50;94916.31;5061630;28;20238;-77
2023/03/20 11:32:29;;;;;;;22.67;8.65;;;;;;;18.35;35.60;94912.63;5061108;28;20677;-75
2023/03/20 11:34:57;;;;;;;14.15;8.23;;;;;;;18.43;35.75;94908.66;5068200;28;20193;-76